logo
App data

Mystery P.I. - Lost in Los Angeles

Seek & Find the Hollywood Blockbuster! The only copy of this year's biggest blockbuster movie has gone missing the day before the VIP Hollywood premiere. You are the world famous Mystery P.I. and have been hired to track down and return the lost movie. Seek & Find over 2100 hidden objects in 25 stunning L.A.
Store | Hub | SteamDB
Developer: SpinTop Games Publisher: PopCap Games, Inc.
Genre: Casual
Languages: English
Tags: Casual (22), Hidden Object (8)
Category: Single-player
Release date: Jul 27, 2009
Price: $4.99
Owners: 20,000 .. 50,000
Followers: 57
Peak concurrent players yesterday: 5

Steam Spy is still in beta, so expect major bugs.

Owners data:

Access restricted.

This feature is only available to users with special access rights. Sorry.

If you want to proceed, you need to register or log in first and then back Steam Spy on Patreon. Look for Indie or Pro pledge.

Don't forget to use the same email as on Steam Spy!

Audience in 2 weeks:

Access restricted.

This feature is only available to users with special access rights. Sorry.

If you want to proceed, you need to register or log in first and then back Steam Spy on Patreon. Look for Indie or Pro pledge.

Don't forget to use the same email as on Steam Spy!

Peak daily concurrent players:

CCU data courtesy of SteamDB. Used with permission.

Hourly concurrent players:

Daily Twitch stats:

Hourly Twitch stats:

YouTube:

The views data is based on top 50 videos uploaded last week. Actual number of views might be more than the number shown.

The displayed number of videos uploaded yesterday is limited to 50, so if there were more videos uploaded, the number will still show 50.

If the game has commonly used word as its name (like "FEAR" or "Volume") its number of Youtube views might be wrong.

Games similar to this one:

# Game Release date
Price
Score rank
(Userscore / Metascore)
Owners
Players
Playtime (Median)
1 Puppy Dog: Jigsaw Puzzles Jul 19, 2016 $0.99N/A (N/A)20,000 .. 50,0000.61%03:50 (01:16)
2 Legends of Atlantis: Exodus Sep 3, 2015 $6.99N/A (N/A)0 .. 20,0000%00:00 (00:00)
3 Tradewinds Classics Jul 17, 2009 $4.99N/A (N/A)0 .. 20,0000%00:00 (00:00)
4 Peggle Nights Oct 15, 2008 $4.9990% (94%/76%)200,000 .. 500,0001.85%00:51 (00:49)
5 Farm Frenzy 2 Aug 27, 2008 $4.99N/A (N/A)0 .. 20,0000%00:00 (00:00)
6 Chuzzle Deluxe Aug 30, 2006 $4.9987% (93%)50,000 .. 100,0002.17%00:01 (00:00)
7 Zuma Deluxe Aug 30, 2006 $4.9983% (92%)50,000 .. 100,0000%00:00 (00:00)
8 Princess Maker 2 Refine Sep 28, 2016 $19.9983% (92%)20,000 .. 50,0000%00:00 (00:00)
9 YOU DON’T KNOW JACK Feb 8, 2011 N/A83% (92%/71%)0 .. 20,0000%00:00 (00:00)
10 Kitty Cat: Jigsaw Puzzles Jul 18, 2016 $0.9983% (92%)50,000 .. 100,0000%00:00 (00:00)
11 Hidden Object Bundle 4 in 1 Oct 6, 2015 $7.9980% (91%)20,000 .. 50,0000%00:00 (00:00)
12 Putt-Putt and Fatty Bear's Activity Pack May 15, 2014 $4.9976% (90%)0 .. 20,0000%00:00 (00:00)
13 Gnomes Garden 2 May 18, 2016 $4.99N/A (N/A)20,000 .. 50,0000%00:00 (00:00)
14 Bejeweled 2 Deluxe Aug 30, 2006 $4.9976% (90%)50,000 .. 100,0000%00:00 (00:00)
15 Mr Nibbles Forever Apr 29, 2016 $0.99N/A (N/A)0 .. 20,0000%00:00 (00:00)
16 Puzzler World May 28, 2010 $4.9971% (88%)50,000 .. 100,0000%00:00 (00:00)
17 Luxor 3 Nov 13, 2007 $9.9971% (88%)20,000 .. 50,0000%00:00 (00:00)
18 Baseball Mogul 2015 Jul 24, 2015 $4.99N/A (N/A)20,000 .. 50,0000%00:00 (00:00)
19 Shufflepuck Cantina Deluxe Dec 6, 2013 $9.9971% (88%)100,000 .. 200,0000%00:00 (00:00)
20 Stikbold! A Dodgeball Adventure Apr 1, 2016 $9.9971% (88%)50,000 .. 100,0000%00:00 (00:00)
21 Big Thinkers 1st Grade Aug 18, 2015 $6.99N/A (N/A)0 .. 20,0000%00:00 (00:00)
22 Alice's Patchwork Mar 3, 2016 $4.99N/A (N/A)20,000 .. 50,0000%00:00 (00:00)
23 Among the Heavens Nov 6, 2015 $2.9965% (86%)50,000 .. 100,0000%00:00 (00:00)
24 Plant Tycoon Sep 27, 2007 $9.9962% (85%)0 .. 20,0000%00:00 (00:00)
25 Brink of Consciousness: The Lonely Hearts Murders Nov 24, 2014 $9.9962% (85%)0 .. 20,0000%00:00 (00:00)
26 Pretty Girls Panic! Dec 19, 2016 $1.9962% (85%)20,000 .. 50,0002.67%04:20 (02:53)
27 Little Racers STREET Feb 6, 2014 $5.9960% (84%/62%)100,000 .. 200,0000.7%01:58 (00:59)
28 Space Codex May 17, 2016 $0.4960% (84%)50,000 .. 100,0000.43%04:32 (01:30)
29 Cranky Cat Jun 5, 2013 $2.99N/A (N/A)0 .. 20,0000%00:00 (00:00)
30 Hidden Object 6-in-1 bundle Mar 16, 2016 $11.9960% (84%)20,000 .. 50,0002.33%02:24 (00:48)
31 BasketBelle Dec 9, 2014 $4.9957% (83%)0 .. 20,0000%00:00 (00:00)
32 Gnomes Garden Dec 18, 2015 $4.99N/A (N/A)50,000 .. 100,0000%00:00 (00:00)
33 Urban Trial Freestyle Sep 18, 2013 Free55% (82%/58%)100,000 .. 200,0000.41%00:54 (00:18)
34 Venice Deluxe Jun 26, 2007 $4.99N/A (N/A)20,000 .. 50,0000%00:00 (00:00)
35 Mahjong Destiny Jun 17, 2016 $1.99N/A (N/A)50,000 .. 100,0000%00:00 (00:00)
36 My Riding Stables: Life with Horses Mar 27, 2014 $14.9953% (81%)0 .. 20,0000%00:00 (00:00)
37 The Wizard's Pen Sep 16, 2008 $4.99N/A (N/A)20,000 .. 50,0000%00:00 (00:00)
38 Crash Time 3 Nov 25, 2009 $5.9950% (80%)20,000 .. 50,0000%00:00 (00:00)
39 Radial-G : Racing Revolved Mar 28, 2016 $9.9950% (80%)0 .. 20,0000%00:00 (00:00)
40 Rotastic Oct 11, 2012 $9.99N/A (N/A)0 .. 20,0000%00:00 (00:00)
41 7 Wonders: Treasures of Seven Nov 14, 2008 $9.9950% (80%)20,000 .. 50,0000%00:00 (00:00)
42 Crash Dive Jul 6, 2015 $6.9950% (80%)0 .. 20,0000%00:00 (00:00)
43 Sea Legends: Phantasmal Light Collector's Edition Sep 17, 2014 $4.9950% (80%)50,000 .. 100,0000%00:00 (00:00)
44 Combat Wings: Battle of Britain Oct 14, 2009 $4.9948% (79%)100,000 .. 200,0000%00:00 (00:00)
45 Qvadriga Jun 13, 2014 $19.9948% (79%/72%)20,000 .. 50,0000%00:00 (00:00)
46 Elementary My Dear Majesty! Apr 16, 2015 $0.9946% (78%)50,000 .. 100,0000%00:00 (00:00)
47 Typer Shark! Deluxe Aug 30, 2006 $4.9942% (76%)20,000 .. 50,0000%00:00 (00:00)
48 Mystery Case Files: Madame Fate Dec 14, 2007 $6.99N/A (N/A)0 .. 20,0000%00:00 (00:00)
49 Amazing Adventures Around the World Sep 17, 2008 $4.99N/A (N/A)20,000 .. 50,0000%00:00 (00:00)
50 Runaway Express Mystery Sep 23, 2014 $6.99N/A (N/A)0 .. 20,0000%00:00 (00:00)
51 Toilet Tycoon Sep 17, 2015 $4.9940% (75%)0 .. 20,0000%00:00 (00:00)
52 Pretty Girls Mahjong Solitaire Aug 24, 2015 $4.9940% (75%)20,000 .. 50,0000%00:00 (00:00)
53 Zombie Solitaire Nov 15, 2013 $8.9939% (74%)20,000 .. 50,0000%00:00 (00:00)
54 Evolution Planet: Gold Edition Jul 7, 2016 $0.99N/A (N/A)0 .. 20,0000%00:00 (00:00)
55 Home Design 3D Nov 20, 2015 $9.9939% (74%)20,000 .. 50,0000%00:00 (00:00)
56 Ski Region Simulator - Gold Edition Jan 16, 2013 $8.9937% (73%)20,000 .. 50,0003.03%00:03 (00:01)
57 Football Mogul 2014 May 28, 2015 $0.99N/A (N/A)20,000 .. 50,0000%00:00 (00:00)
58 Mystery P.I. - The Lottery Ticket Oct 16, 2007 $4.99N/A (N/A)20,000 .. 50,0000%00:00 (00:00)
59 MiniDrivers Aug 31, 2015 $5.9932% (70%)20,000 .. 50,0001.28%00:11 (00:03)
60 StuntMANIA Reloaded Nov 13, 2014 $4.9930% (69%)20,000 .. 50,0000%00:00 (00:00)
61 Diner Mania Jun 25, 2015 $3.9930% (69%)0 .. 20,0000%00:00 (00:00)
62 Mystery P.I. - The Vegas Heist Jun 4, 2008 $4.99N/A (N/A)20,000 .. 50,0000%00:00 (00:00)
63 Polaris Sector Mar 22, 2016 $39.9929% (68%/76%)0 .. 20,0000%00:00 (00:00)
64 Chocolatier: Decadence by Design Aug 12, 2009 $9.9929% (68%)0 .. 20,0000%00:00 (00:00)
65 Luxor Jun 10, 2008 $9.99N/A (N/A)0 .. 20,0000%00:00 (00:00)
66 Castle: Never Judge a Book by its Cover Jul 9, 2013 N/A23% (64%)50,000 .. 100,0000%00:00 (00:00)
67 City Life 2008 Jul 18, 2008 $9.9923% (64%)20,000 .. 50,0000%00:00 (00:00)
68 Pro Cycling Manager 2014 Jun 19, 2014 $9.9923% (64%)20,000 .. 50,0000%00:00 (00:00)
69 Meridian: Age of Invention Sep 30, 2015 $2.9922% (63%)20,000 .. 50,0000%00:00 (00:00)
70 PAC-MAN CHAMPIONSHIP EDITION 2 Sep 13, 2016 $12.9922% (63%)50,000 .. 100,0001.16%13:44 (04:34)
71 Bridge It + Nov 18, 2013 $6.9922% (63%)20,000 .. 50,0001.56%00:03 (00:01)
72 Air Conflicts: Secret Wars Sep 30, 2011 $5.9920% (61%/65%)50,000 .. 100,0000%00:00 (00:00)
73 Solitaire Christmas. Match 2 Cards Dec 24, 2015 $4.9920% (61%)50,000 .. 100,0000%00:00 (00:00)
74 Aerofly FS 1 Flight Simulator Oct 17, 2012 $19.9920% (61%)0 .. 20,0000%00:00 (00:00)
75 Zooloretto Nov 1, 2011 $2.99N/A (N/A)0 .. 20,0000%00:00 (00:00)
76 Jane Angel: Templar Mystery Dec 10, 2009 $4.99N/A (N/A)20,000 .. 50,0000%00:00 (00:00)
77 Cities in Motion 2 Apr 2, 2013 $19.9918% (59%/72%)500,000 .. 1,000,0000.22%02:00 (01:11)
78 Hacker Evolution: Untold Sep 14, 2010 $4.9916% (58%)200,000 .. 500,0000%00:00 (00:00)
79 Riding Star - Horse Championship! Mar 27, 2014 $9.99N/A (N/A)0 .. 20,0000%00:00 (00:00)
80 Luxor: Quest for the Afterlife Dec 15, 2008 $9.99N/A (N/A)0 .. 20,0000%00:00 (00:00)
81 Mystery P.I. - The New York Fortune Jan 14, 2009 $4.99N/A (N/A)20,000 .. 50,0000%00:00 (00:00)
82 Pacific Storm Allies May 25, 2007 $7.9913% (53%/60%)50,000 .. 100,0000%00:00 (00:00)
83 Poker Pretty Girls Battle: Texas Hold'em Oct 21, 2015 $9.9912% (52%)20,000 .. 50,0000%00:00 (00:00)
84 Speed Kills May 16, 2014 $9.9912% (52%)200,000 .. 500,0000.54%01:45 (01:42)
85 Kumoon : Ballistic Physics Puzzle Nov 10, 2015 $2.9911% (51%)0 .. 20,0004.35%10:10 (03:23)
86 Firefighters 2014 May 21, 2014 $19.9911% (50%)50,000 .. 100,0000%00:00 (00:00)
87 Ludo Supremo Jun 8, 2016 $1.9911% (50%)20,000 .. 50,0001.23%01:30 (00:55)
88 300 Dwarves Jun 17, 2013 $6.9910% (49%)0 .. 20,0000%00:00 (00:00)
89 EVEREST VR Aug 2, 2016 $9.999% (47%)0 .. 20,0000%00:00 (00:00)
90 Shannon Tweed's Attack Of The Groupies Apr 1, 2014 $4.99N/A (N/A)0 .. 20,0000%00:00 (00:00)
91 Lords of Football Apr 5, 2013 $14.998% (46%/52%)20,000 .. 50,0002.94%01:18 (00:26)
92 Transport Giant Jun 8, 2004 $9.998% (46%)100,000 .. 200,0000%00:00 (00:00)
93 Theme Park Studio Dec 2, 2016 $29.997% (44%)0 .. 20,0000%00:00 (00:00)
94 Ship Simulator: Maritime Search and Rescue Jul 1, 2014 $17.997% (42%)20,000 .. 50,0000%00:00 (00:00)
95 Luxor 2 Dec 8, 2005 $9.99N/A (N/A)20,000 .. 50,0000%00:00 (00:00)
96 Silent Hunter 5: Battle of the Atlantic Mar 2010 $9.996% (41%/62%)100,000 .. 200,0002.08%01:27 (00:29)
97 Echelon Apr 15, 2001 $3.996% (39%/70%)0 .. 20,0000%00:00 (00:00)
98 RECYCLE Sep 3, 2014 $9.995% (37%)20,000 .. 50,0000%00:00 (00:00)
99 Firefighters - The Simulation Aug 31, 2016 $14.99N/A (N/A)0 .. 20,0000%00:00 (00:00)
100 Industry Empire Jul 30, 2014 $19.993% (31%)20,000 .. 50,0000%00:00 (00:00)
101 Tetris Ultimate Dec 10, 2015 $14.993% (30%)20,000 .. 50,00014.29%01:00 (00:20)
102 Diner Dash: Hometown Hero Aug 12, 2009 $9.993% (30%)0 .. 20,0000%00:00 (00:00)
103 The Terminal 2 Aug 8, 2014 $4.992% (24%)0 .. 20,0000%00:00 (00:00)
104 City Play May 19, 2016 $3.99N/A (N/A)0 .. 20,0000%00:00 (00:00)
105 G-Ball May 28, 2014 $0.992% (22%)0 .. 20,0000%00:00 (00:00)
106 Airline Tycoon 2 Oct 24, 2011 $9.991% (16%/57%)50,000 .. 100,0000.87%00:19 (00:06)
107 The Flying Dutchman Sep 12, 2014 $4.991% (3%)0 .. 20,0007.14%00:01 (00:00)
108 Chainz 2: Relinked Jul 13, 2009 $9.99N/A (N/A)0 .. 20,0000%00:00 (00:00)
109 Fantastic 4 In A Row 2 Aug 15, 2016 $0.99N/A (N/A)50,000 .. 100,0000%00:00 (00:00)
110 Bayla Bunny Jun 13, 2016 $1.99N/A (N/A)50,000 .. 100,0000%00:00 (00:00)
111 Dessert Storm Oct 23, 2016 $0.99N/A (N/A)50,000 .. 100,0000%00:00 (00:00)
112 Bubble Blowout Oct 24, 2016 $0.99N/A (N/A)50,000 .. 100,0000%00:00 (00:00)
113 Barnyard Mahjong 3 Jul 29, 2016 $1.99N/A (N/A)50,000 .. 100,0000%00:00 (00:00)
114 Rush for gold: California Mar 9, 2016 $3.99N/A (N/A)20,000 .. 50,0000%00:00 (00:00)
115 Discovery! A Seek and Find Adventure Jul 29, 2008 $9.99N/A (N/A)0 .. 20,0000%00:00 (00:00)
116 The Hidden Dragon Jul 26, 2016 $2.99N/A (N/A)0 .. 20,0000%00:00 (00:00)
117 Tropical Fish Shop 2 Mar 9, 2016 $3.99N/A (N/A)0 .. 20,0000%00:00 (00:00)
118 Them - The Summoning May 16, 2014 $4.99N/A (N/A)0 .. 20,0000%00:00 (00:00)
119 Nokori Mar 25, 2016 $0.99N/A (N/A)0 .. 20,0000%00:00 (00:00)

Tags over time:

Access restricted.

This feature is only available to users with special access rights. Sorry.

If you want to proceed, you need to register or log in first and then back Steam Spy on Patreon. Look for Indie or Pro pledge.

Don't forget to use the same email as on Steam Spy!

Owners of this game also own:

Access restricted.

This feature is only available to users with special access rights. Sorry.

If you want to proceed, you need to register or log in first and then back Steam Spy on Patreon. Look for Indie or Pro pledge.

Don't forget to use the same email as on Steam Spy!

Playtime distribution:

Access restricted.

This feature is only available to users with special access rights. Sorry.

If you want to proceed, you need to register or log in first and then back Steam Spy on Patreon. Look for Indie or Pro pledge.

Don't forget to use the same email as on Steam Spy!

Playtime (2 weeks):

Access restricted.

This feature is only available to users with special access rights. Sorry.

If you want to proceed, you need to register or log in first and then back Steam Spy on Patreon. Look for Indie or Pro pledge.

Don't forget to use the same email as on Steam Spy!

User reviews:

Login required.

Please register or log in to see this information.